sensor_id;sensor_type;location;lat;lon;timestamp;temperature;humidity
12025;DHT22;6073;53.230;10.444;2024-02-23T00:00:11;9.70;99.90
12025;DHT22;6073;53.230;10.444;2024-02-23T00:02:37;9.70;99.90
12025;DHT22;6073;53.230;10.444;2024-02-23T00:05:04;9.70;99.90
12025;DHT22;6073;53.230;10.444;2024-02-23T00:07:29;9.80;99.90
12025;DHT22;6073;53.230;10.444;2024-02-23T00:09:55;9.70;99.90
12025;DHT22;6073;53.230;10.444;2024-02-23T00:12:20;9.70;99.90
12025;DHT22;6073;53.230;10.444;2024-02-23T00:14:46;9.70;99.90
12025;DHT22;6073;53.230;10.444;2024-02-23T00:17:12;9.70;99.90
12025;DHT22;6073;53.230;10.444;2024-02-23T00:19:37;9.80;99.90
12025;DHT22;6073;53.230;10.444;2024-02-23T00:22:03;9.70;99.90
12025;DHT22;6073;53.230;10.444;2024-02-23T00:24:29;9.70;99.90
12025;DHT22;6073;53.230;10.444;2024-02-23T00:26:54;9.70;99.90
12025;DHT22;6073;53.230;10.444;2024-02-23T00:29:20;9.60;99.90
12025;DHT22;6073;53.230;10.444;2024-02-23T00:31:46;9.60;99.90
12025;DHT22;6073;53.230;10.444;2024-02-23T00:34:12;9.50;99.90
12025;DHT22;6073;53.230;10.444;2024-02-23T00:36:42;9.50;99.90
12025;DHT22;6073;53.230;10.444;2024-02-23T00:39:08;9.50;99.90
12025;DHT22;6073;53.230;10.444;2024-02-23T00:41:34;9.40;99.90
12025;DHT22;6073;53.230;10.444;2024-02-23T00:44:00;9.30;99.90
12025;DHT22;6073;53.230;10.444;2024-02-23T00:46:26;9.20;99.90
12025;DHT22;6073;53.230;10.444;2024-02-23T00:48:51;9.20;99.90
12025;DHT22;6073;53.230;10.444;2024-02-23T00:51:17;9.20;99.90
12025;DHT22;6073;53.230;10.444;2024-02-23T00:53:42;9.20;99.90
12025;DHT22;6073;53.230;10.444;2024-02-23T00:56:08;9.10;99.90
12025;DHT22;6073;53.230;10.444;2024-02-23T00:58:34;9.10;99.90
12025;DHT22;6073;53.230;10.444;2024-02-23T01:01:00;9.10;99.90
12025;DHT22;6073;53.230;10.444;2024-02-23T01:03:25;9.20;99.90
12025;DHT22;6073;53.230;10.444;2024-02-23T01:05:51;9.20;99.90
12025;DHT22;6073;53.230;10.444;2024-02-23T01:08:17;9.30;99.90
12025;DHT22;6073;53.230;10.444;2024-02-23T01:10:43;9.30;99.90
12025;DHT22;6073;53.230;10.444;2024-02-23T01:13:08;9.30;99.90
12025;DHT22;6073;53.230;10.444;2024-02-23T01:15:34;9.30;99.90
12025;DHT22;6073;53.230;10.444;2024-02-23T01:17:59;9.30;99.90
12025;DHT22;6073;53.230;10.444;2024-02-23T01:20:25;9.20;99.90
12025;DHT22;6073;53.230;10.444;2024-02-23T01:22:50;9.30;99.90
12025;DHT22;6073;53.230;10.444;2024-02-23T01:25:16;9.30;99.90
12025;DHT22;6073;53.230;10.444;2024-02-23T01:27:42;9.20;99.90
12025;DHT22;6073;53.230;10.444;2024-02-23T01:30:10;9.20;99.90
12025;DHT22;6073;53.230;10.444;2024-02-23T01:32:35;9.10;99.90
12025;DHT22;6073;53.230;10.444;2024-02-23T01:35:04;9.10;99.90
12025;DHT22;6073;53.230;10.444;2024-02-23T01:37:29;9.20;99.90
12025;DHT22;6073;53.230;10.444;2024-02-23T01:39:55;9.30;99.90
12025;DHT22;6073;53.230;10.444;2024-02-23T01:42:21;9.20;99.90
12025;DHT22;6073;53.230;10.444;2024-02-23T01:44:47;9.20;99.90
12025;DHT22;6073;53.230;10.444;2024-02-23T01:47:12;9.10;99.90
12025;DHT22;6073;53.230;10.444;2024-02-23T01:49:38;8.80;99.90
12025;DHT22;6073;53.230;10.444;2024-02-23T01:52:04;8.40;99.90
12025;DHT22;6073;53.230;10.444;2024-02-23T01:54:31;7.90;99.90
12025;DHT22;6073;53.230;10.444;2024-02-23T01:56:57;7.50;99.90
12025;DHT22;6073;53.230;10.444;2024-02-23T01:59:24;7.20;99.90
12025;DHT22;6073;53.230;10.444;2024-02-23T02:01:50;7.00;99.90
12025;DHT22;6073;53.230;10.444;2024-02-23T02:04:16;6.80;99.90
12025;DHT22;6073;53.230;10.444;2024-02-23T02:06:42;6.70;99.90
12025;DHT22;6073;53.230;10.444;2024-02-23T02:09:08;6.60;99.90
12025;DHT22;6073;53.230;10.444;2024-02-23T02:11:33;6.60;99.90
12025;DHT22;6073;53.230;10.444;2024-02-23T02:13:59;6.60;99.90
12025;DHT22;6073;53.230;10.444;2024-02-23T02:16:25;6.60;99.90
12025;DHT22;6073;53.230;10.444;2024-02-23T02:18:51;6.50;99.90
12025;DHT22;6073;53.230;10.444;2024-02-23T02:21:16;6.40;99.90
12025;DHT22;6073;53.230;10.444;2024-02-23T02:23:42;6.30;99.90
12025;DHT22;6073;53.230;10.444;2024-02-23T02:26:07;6.30;99.90
12025;DHT22;6073;53.230;10.444;2024-02-23T02:28:33;6.30;99.90
12025;DHT22;6073;53.230;10.444;2024-02-23T02:30:59;6.30;99.90
12025;DHT22;6073;53.230;10.444;2024-02-23T02:33:25;6.30;99.90
12025;DHT22;6073;53.230;10.444;2024-02-23T02:35:50;6.20;99.90
12025;DHT22;6073;53.230;10.444;2024-02-23T02:38:16;6.20;99.90
12025;DHT22;6073;53.230;10.444;2024-02-23T02:40:42;6.10;99.90
12025;DHT22;6073;53.230;10.444;2024-02-23T02:43:07;6.10;99.90
12025;DHT22;6073;53.230;10.444;2024-02-23T02:45:33;6.20;99.90
12025;DHT22;6073;53.230;10.444;2024-02-23T02:48:02;6.20;99.90
12025;DHT22;6073;53.230;10.444;2024-02-23T02:50:28;6.10;99.90
12025;DHT22;6073;53.230;10.444;2024-02-23T02:52:54;6.10;99.90
12025;DHT22;6073;53.230;10.444;2024-02-23T02:55:20;6.10;99.90
12025;DHT22;6073;53.230;10.444;2024-02-23T02:57:45;6.10;99.90
12025;DHT22;6073;53.230;10.444;2024-02-23T03:00:11;6.10;99.90
12025;DHT22;6073;53.230;10.444;2024-02-23T03:02:37;6.00;99.90
12025;DHT22;6073;53.230;10.444;2024-02-23T03:05:03;5.90;99.90
12025;DHT22;6073;53.230;10.444;2024-02-23T03:07:29;5.90;99.90
12025;DHT22;6073;53.230;10.444;2024-02-23T03:09:54;5.80;99.90
12025;DHT22;6073;53.230;10.444;2024-02-23T03:12:20;5.80;99.90
12025;DHT22;6073;53.230;10.444;2024-02-23T03:14:46;5.70;99.90
12025;DHT22;6073;53.230;10.444;2024-02-23T03:17:11;5.70;99.90
12025;DHT22;6073;53.230;10.444;2024-02-23T03:19:37;5.60;99.90
12025;DHT22;6073;53.230;10.444;2024-02-23T03:22:03;5.60;99.90
12025;DHT22;6073;53.230;10.444;2024-02-23T03:24:29;5.50;99.90
12025;DHT22;6073;53.230;10.444;2024-02-23T03:26:55;5.50;99.90
12025;DHT22;6073;53.230;10.444;2024-02-23T03:29:21;5.50;99.90
12025;DHT22;6073;53.230;10.444;2024-02-23T03:31:50;5.50;99.90
12025;DHT22;6073;53.230;10.444;2024-02-23T03:34:16;5.50;99.90
12025;DHT22;6073;53.230;10.444;2024-02-23T03:36:42;5.50;99.90
12025;DHT22;6073;53.230;10.444;2024-02-23T03:39:08;5.50;99.90
12025;DHT22;6073;53.230;10.444;2024-02-23T03:41:33;5.50;99.90
12025;DHT22;6073;53.230;10.444;2024-02-23T03:43:59;5.40;99.90
12025;DHT22;6073;53.230;10.444;2024-02-23T03:46:24;5.40;99.90
12025;DHT22;6073;53.230;10.444;2024-02-23T03:48:50;5.40;99.90
12025;DHT22;6073;53.230;10.444;2024-02-23T03:51:17;5.40;99.90
12025;DHT22;6073;53.230;10.444;2024-02-23T03:53:43;5.40;99.90
12025;DHT22;6073;53.230;10.444;2024-02-23T03:56:08;5.40;99.90
12025;DHT22;6073;53.230;10.444;2024-02-23T03:58:34;5.50;99.90
12025;DHT22;6073;53.230;10.444;2024-02-23T04:00:59;5.50;99.90
12025;DHT22;6073;53.230;10.444;2024-02-23T04:03:25;5.40;99.90
12025;DHT22;6073;53.230;10.444;2024-02-23T04:05:50;5.40;99.90
12025;DHT22;6073;53.230;10.444;2024-02-23T04:08:16;5.40;99.90
12025;DHT22;6073;53.230;10.444;2024-02-23T04:10:42;5.30;99.90
12025;DHT22;6073;53.230;10.444;2024-02-23T04:13:07;5.30;99.90
12025;DHT22;6073;53.230;10.444;2024-02-23T04:15:33;5.20;99.90
12025;DHT22;6073;53.230;10.444;2024-02-23T04:17:59;5.10;99.90
12025;DHT22;6073;53.230;10.444;2024-02-23T04:20:24;5.10;99.90
12025;DHT22;6073;53.230;10.444;2024-02-23T04:22:50;5.00;99.90
12025;DHT22;6073;53.230;10.444;2024-02-23T04:25:15;5.10;99.90
12025;DHT22;6073;53.230;10.444;2024-02-23T04:27:41;5.10;99.90
12025;DHT22;6073;53.230;10.444;2024-02-23T04:30:07;5.00;99.90
12025;DHT22;6073;53.230;10.444;2024-02-23T04:32:33;5.00;99.90
12025;DHT22;6073;53.230;10.444;2024-02-23T04:34:58;5.00;99.90
12025;DHT22;6073;53.230;10.444;2024-02-23T04:37:24;4.90;99.90
12025;DHT22;6073;53.230;10.444;2024-02-23T04:39:49;4.90;99.90
12025;DHT22;6073;53.230;10.444;2024-02-23T04:42:15;4.90;99.90
12025;DHT22;6073;53.230;10.444;2024-02-23T04:44:44;4.80;99.90
12025;DHT22;6073;53.230;10.444;2024-02-23T04:47:09;4.80;99.90
12025;DHT22;6073;53.230;10.444;2024-02-23T04:49:35;4.80;99.90
12025;DHT22;6073;53.230;10.444;2024-02-23T04:52:01;4.90;99.90
12025;DHT22;6073;53.230;10.444;2024-02-23T04:54:26;4.90;99.90
12025;DHT22;6073;53.230;10.444;2024-02-23T04:56:52;4.80;99.90
12025;DHT22;6073;53.230;10.444;2024-02-23T04:59:17;4.80;99.90
12025;DHT22;6073;53.230;10.444;2024-02-23T05:01:43;4.80;99.90
12025;DHT22;6073;53.230;10.444;2024-02-23T05:04:08;4.80;99.90
12025;DHT22;6073;53.230;10.444;2024-02-23T05:06:34;4.80;99.90
12025;DHT22;6073;53.230;10.444;2024-02-23T05:09:01;4.80;99.90
12025;DHT22;6073;53.230;10.444;2024-02-23T05:11:27;4.80;99.90
12025;DHT22;6073;53.230;10.444;2024-02-23T05:13:52;4.80;99.90
12025;DHT22;6073;53.230;10.444;2024-02-23T05:16:18;4.80;99.90
12025;DHT22;6073;53.230;10.444;2024-02-23T05:18:43;4.80;99.90
12025;DHT22;6073;53.230;10.444;2024-02-23T05:21:10;4.80;99.90
12025;DHT22;6073;53.230;10.444;2024-02-23T05:23:36;4.80;99.90
12025;DHT22;6073;53.230;10.444;2024-02-23T05:26:01;4.70;99.90
12025;DHT22;6073;53.230;10.444;2024-02-23T05:28:27;4.70;99.90
12025;DHT22;6073;53.230;10.444;2024-02-23T05:30:54;4.70;99.90
12025;DHT22;6073;53.230;10.444;2024-02-23T05:33:19;4.70;99.90
12025;DHT22;6073;53.230;10.444;2024-02-23T05:35:48;4.70;99.90
12025;DHT22;6073;53.230;10.444;2024-02-23T05:38:14;4.60;99.90
12025;DHT22;6073;53.230;10.444;2024-02-23T05:40:40;4.70;99.90
12025;DHT22;6073;53.230;10.444;2024-02-23T05:43:06;4.60;99.90
12025;DHT22;6073;53.230;10.444;2024-02-23T05:45:31;4.60;99.90
12025;DHT22;6073;53.230;10.444;2024-02-23T05:47:57;4.70;99.90
12025;DHT22;6073;53.230;10.444;2024-02-23T05:50:23;4.70;99.90
12025;DHT22;6073;53.230;10.444;2024-02-23T05:52:49;4.70;99.90
12025;DHT22;6073;53.230;10.444;2024-02-23T05:55:14;4.70;99.90
12025;DHT22;6073;53.230;10.444;2024-02-23T05:57:40;4.70;99.90
12025;DHT22;6073;53.230;10.444;2024-02-23T06:00:06;4.70;99.90
12025;DHT22;6073;53.230;10.444;2024-02-23T06:02:33;4.80;99.90
12025;DHT22;6073;53.230;10.444;2024-02-23T06:04:58;4.80;99.90
12025;DHT22;6073;53.230;10.444;2024-02-23T06:07:24;4.80;99.90
12025;DHT22;6073;53.230;10.444;2024-02-23T06:09:55;4.80;99.90
12025;DHT22;6073;53.230;10.444;2024-02-23T06:12:21;4.80;99.90
12025;DHT22;6073;53.230;10.444;2024-02-23T06:14:47;4.80;99.90
12025;DHT22;6073;53.230;10.444;2024-02-23T06:17:12;4.80;99.90
12025;DHT22;6073;53.230;10.444;2024-02-23T06:19:38;4.80;99.90
12025;DHT22;6073;53.230;10.444;2024-02-23T06:22:03;4.80;99.90
12025;DHT22;6073;53.230;10.444;2024-02-23T06:24:29;4.80;99.90
12025;DHT22;6073;53.230;10.444;2024-02-23T06:26:55;4.90;99.90
12025;DHT22;6073;53.230;10.444;2024-02-23T06:29:20;4.90;99.90
12025;DHT22;6073;53.230;10.444;2024-02-23T06:31:46;5.00;99.90
12025;DHT22;6073;53.230;10.444;2024-02-23T06:34:15;5.00;99.90
12025;DHT22;6073;53.230;10.444;2024-02-23T06:36:41;5.00;99.90
12025;DHT22;6073;53.230;10.444;2024-02-23T06:39:07;5.00;99.90
12025;DHT22;6073;53.230;10.444;2024-02-23T06:41:33;4.90;99.90
12025;DHT22;6073;53.230;10.444;2024-02-23T06:43:59;5.00;99.90
12025;DHT22;6073;53.230;10.444;2024-02-23T06:46:25;5.00;99.90
12025;DHT22;6073;53.230;10.444;2024-02-23T06:48:50;5.10;99.90
12025;DHT22;6073;53.230;10.444;2024-02-23T06:51:16;4.90;99.90
12025;DHT22;6073;53.230;10.444;2024-02-23T06:53:42;5.00;99.90
12025;DHT22;6073;53.230;10.444;2024-02-23T06:56:07;4.90;99.90
12025;DHT22;6073;53.230;10.444;2024-02-23T06:58:33;4.80;99.90
12025;DHT22;6073;53.230;10.444;2024-02-23T07:00:59;4.80;99.90
12025;DHT22;6073;53.230;10.444;2024-02-23T07:03:25;4.80;99.90
12025;DHT22;6073;53.230;10.444;2024-02-23T07:05:51;4.80;99.90
12025;DHT22;6073;53.230;10.444;2024-02-23T07:08:16;4.90;99.90
12025;DHT22;6073;53.230;10.444;2024-02-23T07:10:42;4.90;99.90
12025;DHT22;6073;53.230;10.444;2024-02-23T07:13:07;5.00;99.90
12025;DHT22;6073;53.230;10.444;2024-02-23T07:15:34;5.10;99.90
12025;DHT22;6073;53.230;10.444;2024-02-23T07:18:01;5.20;99.90
12025;DHT22;6073;53.230;10.444;2024-02-23T07:20:26;5.10;99.90
12025;DHT22;6073;53.230;10.444;2024-02-23T07:22:52;5.10;99.90
12025;DHT22;6073;53.230;10.444;2024-02-23T07:25:18;5.20;99.90
12025;DHT22;6073;53.230;10.444;2024-02-23T07:27:46;5.40;99.90
12025;DHT22;6073;53.230;10.444;2024-02-23T07:30:12;5.60;99.90
12025;DHT22;6073;53.230;10.444;2024-02-23T07:32:38;5.90;99.90
12025;DHT22;6073;53.230;10.444;2024-02-23T07:35:04;6.40;99.90
12025;DHT22;6073;53.230;10.444;2024-02-23T07:37:30;6.70;99.90
12025;DHT22;6073;53.230;10.444;2024-02-23T07:39:55;7.10;99.90
12025;DHT22;6073;53.230;10.444;2024-02-23T07:42:21;7.80;99.90
12025;DHT22;6073;53.230;10.444;2024-02-23T07:44:46;7.80;99.90
12025;DHT22;6073;53.230;10.444;2024-02-23T07:47:12;8.10;99.90
12025;DHT22;6073;53.230;10.444;2024-02-23T07:49:38;8.60;99.90
12025;DHT22;6073;53.230;10.444;2024-02-23T07:52:06;9.00;99.90
12025;DHT22;6073;53.230;10.444;2024-02-23T07:54:32;9.30;99.90
12025;DHT22;6073;53.230;10.444;2024-02-23T07:56:58;9.10;99.90
12025;DHT22;6073;53.230;10.444;2024-02-23T07:59:24;9.20;99.90
12025;DHT22;6073;53.230;10.444;2024-02-23T08:01:49;9.30;99.90
12025;DHT22;6073;53.230;10.444;2024-02-23T08:04:15;9.10;99.90
12025;DHT22;6073;53.230;10.444;2024-02-23T08:06:41;9.40;99.90
12025;DHT22;6073;53.230;10.444;2024-02-23T08:09:08;9.50;99.90
12025;DHT22;6073;53.230;10.444;2024-02-23T08:11:34;9.20;99.90
12025;DHT22;6073;53.230;10.444;2024-02-23T08:13:59;9.30;99.90
12025;DHT22;6073;53.230;10.444;2024-02-23T08:16:26;9.50;99.90
12025;DHT22;6073;53.230;10.444;2024-02-23T08:18:51;9.80;99.90
12025;DHT22;6073;53.230;10.444;2024-02-23T08:21:17;9.90;99.90
12025;DHT22;6073;53.230;10.444;2024-02-23T08:23:43;9.80;99.90
12025;DHT22;6073;53.230;10.444;2024-02-23T08:26:09;10.10;99.90
12025;DHT22;6073;53.230;10.444;2024-02-23T08:28:35;9.90;99.90
12025;DHT22;6073;53.230;10.444;2024-02-23T08:31:01;9.90;99.90
12025;DHT22;6073;53.230;10.444;2024-02-23T08:33:26;10.30;99.90
12025;DHT22;6073;53.230;10.444;2024-02-23T08:35:52;10.30;99.90
12025;DHT22;6073;53.230;10.444;2024-02-23T08:38:17;10.30;99.90
12025;DHT22;6073;53.230;10.444;2024-02-23T08:40:44;10.20;99.90
12025;DHT22;6073;53.230;10.444;2024-02-23T08:43:10;9.90;99.90
12025;DHT22;6073;53.230;10.444;2024-02-23T08:45:36;10.00;99.90
12025;DHT22;6073;53.230;10.444;2024-02-23T08:48:02;9.70;99.90
12025;DHT22;6073;53.230;10.444;2024-02-23T08:50:28;8.90;99.90
12025;DHT22;6073;53.230;10.444;2024-02-23T08:52:54;8.50;99.90
12025;DHT22;6073;53.230;10.444;2024-02-23T08:55:20;8.20;99.90
12025;DHT22;6073;53.230;10.444;2024-02-23T08:57:47;8.20;99.90
12025;DHT22;6073;53.230;10.444;2024-02-23T09:00:13;8.10;99.90
12025;DHT22;6073;53.230;10.444;2024-02-23T09:02:40;7.80;99.90
12025;DHT22;6073;53.230;10.444;2024-02-23T09:05:08;7.80;99.90
12025;DHT22;6073;53.230;10.444;2024-02-23T09:07:33;7.80;99.90
12025;DHT22;6073;53.230;10.444;2024-02-23T09:09:59;7.70;99.90
12025;DHT22;6073;53.230;10.444;2024-02-23T09:12:24;7.70;99.90
12025;DHT22;6073;53.230;10.444;2024-02-23T09:14:50;7.90;99.90
12025;DHT22;6073;53.230;10.444;2024-02-23T09:17:15;8.40;99.90
12025;DHT22;6073;53.230;10.444;2024-02-23T09:19:41;8.50;99.90
12025;DHT22;6073;53.230;10.444;2024-02-23T09:22:06;8.30;99.90
12025;DHT22;6073;53.230;10.444;2024-02-23T09:24:32;8.30;99.90
12025;DHT22;6073;53.230;10.444;2024-02-23T09:26:58;8.60;99.90
12025;DHT22;6073;53.230;10.444;2024-02-23T09:29:24;8.90;99.90
12025;DHT22;6073;53.230;10.444;2024-02-23T09:31:50;9.20;99.90
12025;DHT22;6073;53.230;10.444;2024-02-23T09:34:16;9.50;99.90
12025;DHT22;6073;53.230;10.444;2024-02-23T09:36:41;9.60;99.90
12025;DHT22;6073;53.230;10.444;2024-02-23T09:39:07;9.30;99.90
12025;DHT22;6073;53.230;10.444;2024-02-23T09:41:32;9.00;99.90
12025;DHT22;6073;53.230;10.444;2024-02-23T09:44:02;9.00;99.90
12025;DHT22;6073;53.230;10.444;2024-02-23T09:46:29;8.90;99.90
12025;DHT22;6073;53.230;10.444;2024-02-23T09:48:55;9.00;99.90
12025;DHT22;6073;53.230;10.444;2024-02-23T09:51:22;8.90;99.90
12025;DHT22;6073;53.230;10.444;2024-02-23T09:53:49;8.50;99.90
12025;DHT22;6073;53.230;10.444;2024-02-23T09:56:17;8.40;99.90
12025;DHT22;6073;53.230;10.444;2024-02-23T09:58:44;8.40;99.90
12025;DHT22;6073;53.230;10.444;2024-02-23T10:01:10;8.50;99.90
12025;DHT22;6073;53.230;10.444;2024-02-23T10:03:37;8.70;99.90
12025;DHT22;6073;53.230;10.444;2024-02-23T10:06:04;8.90;99.90
12025;DHT22;6073;53.230;10.444;2024-02-23T10:08:30;8.90;99.90
12025;DHT22;6073;53.230;10.444;2024-02-23T10:10:56;8.90;99.90
12025;DHT22;6073;53.230;10.444;2024-02-23T10:13:22;8.70;99.90
12025;DHT22;6073;53.230;10.444;2024-02-23T10:15:50;8.50;99.90
12025;DHT22;6073;53.230;10.444;2024-02-23T10:18:16;8.40;99.90
12025;DHT22;6073;53.230;10.444;2024-02-23T10:20:42;8.50;99.90
12025;DHT22;6073;53.230;10.444;2024-02-23T10:23:08;8.60;99.90
12025;DHT22;6073;53.230;10.444;2024-02-23T10:25:34;8.70;99.90
12025;DHT22;6073;53.230;10.444;2024-02-23T10:28:01;8.90;99.90
12025;DHT22;6073;53.230;10.444;2024-02-23T10:30:27;9.00;99.90
12025;DHT22;6073;53.230;10.444;2024-02-23T10:32:55;9.00;99.90
12025;DHT22;6073;53.230;10.444;2024-02-23T10:35:22;9.20;99.90
12025;DHT22;6073;53.230;10.444;2024-02-23T10:37:48;9.10;99.90
12025;DHT22;6073;53.230;10.444;2024-02-23T10:40:18;9.10;99.90
12025;DHT22;6073;53.230;10.444;2024-02-23T10:42:45;8.90;99.90
12025;DHT22;6073;53.230;10.444;2024-02-23T10:45:15;8.90;99.90
12025;DHT22;6073;53.230;10.444;2024-02-23T10:47:41;8.80;99.90
12025;DHT22;6073;53.230;10.444;2024-02-23T10:50:08;8.90;99.90
12025;DHT22;6073;53.230;10.444;2024-02-23T10:52:35;8.90;99.90
12025;DHT22;6073;53.230;10.444;2024-02-23T10:55:01;9.00;99.90
12025;DHT22;6073;53.230;10.444;2024-02-23T10:57:33;9.00;99.90
12025;DHT22;6073;53.230;10.444;2024-02-23T11:00:00;9.00;99.90
12025;DHT22;6073;53.230;10.444;2024-02-23T11:02:27;9.00;99.90
12025;DHT22;6073;53.230;10.444;2024-02-23T11:04:55;9.10;99.90
12025;DHT22;6073;53.230;10.444;2024-02-23T11:07:22;9.10;99.90
12025;DHT22;6073;53.230;10.444;2024-02-23T11:09:59;9.30;99.90
12025;DHT22;6073;53.230;10.444;2024-02-23T11:12:26;9.20;99.90
12025;DHT22;6073;53.230;10.444;2024-02-23T11:14:59;9.20;99.90
12025;DHT22;6073;53.230;10.444;2024-02-23T11:17:33;9.30;99.90
12025;DHT22;6073;53.230;10.444;2024-02-23T11:20:03;9.20;99.90
12025;DHT22;6073;53.230;10.444;2024-02-23T11:22:34;9.20;99.90
12025;DHT22;6073;53.230;10.444;2024-02-23T11:25:07;9.10;99.90
12025;DHT22;6073;53.230;10.444;2024-02-23T11:27:37;9.10;99.90
12025;DHT22;6073;53.230;10.444;2024-02-23T11:30:08;9.10;99.90
12025;DHT22;6073;53.230;10.444;2024-02-23T11:32:47;9.00;99.90
12025;DHT22;6073;53.230;10.444;2024-02-23T11:35:15;9.00;99.90
12025;DHT22;6073;53.230;10.444;2024-02-23T11:37:48;8.80;99.90
12025;DHT22;6073;53.230;10.444;2024-02-23T11:40:14;8.90;99.90
12025;DHT22;6073;53.230;10.444;2024-02-23T11:42:43;9.00;99.90
12025;DHT22;6073;53.230;10.444;2024-02-23T11:45:09;9.00;99.90
12025;DHT22;6073;53.230;10.444;2024-02-23T11:47:36;9.10;99.90
12025;DHT22;6073;53.230;10.444;2024-02-23T11:50:02;9.10;99.90
12025;DHT22;6073;53.230;10.444;2024-02-23T11:52:28;9.20;99.90
12025;DHT22;6073;53.230;10.444;2024-02-23T11:54:53;9.20;99.90
12025;DHT22;6073;53.230;10.444;2024-02-23T11:57:21;9.10;99.90
12025;DHT22;6073;53.230;10.444;2024-02-23T11:59:46;9.10;99.90
12025;DHT22;6073;53.230;10.444;2024-02-23T12:02:14;9.10;99.90
12025;DHT22;6073;53.230;10.444;2024-02-23T12:04:40;9.10;99.90
12025;DHT22;6073;53.230;10.444;2024-02-23T12:07:06;9.10;99.90
12025;DHT22;6073;53.230;10.444;2024-02-23T12:09:32;9.00;99.90
12025;DHT22;6073;53.230;10.444;2024-02-23T12:11:57;9.10;99.90
12025;DHT22;6073;53.230;10.444;2024-02-23T12:14:24;9.10;99.90
12025;DHT22;6073;53.230;10.444;2024-02-23T12:16:51;9.10;99.90
12025;DHT22;6073;53.230;10.444;2024-02-23T12:19:17;9.00;99.90
12025;DHT22;6073;53.230;10.444;2024-02-23T12:21:45;8.90;99.90
12025;DHT22;6073;53.230;10.444;2024-02-23T12:24:12;8.90;99.90
12025;DHT22;6073;53.230;10.444;2024-02-23T12:26:37;8.90;99.90
12025;DHT22;6073;53.230;10.444;2024-02-23T12:29:03;8.90;99.90
12025;DHT22;6073;53.230;10.444;2024-02-23T12:31:31;9.00;99.90
12025;DHT22;6073;53.230;10.444;2024-02-23T12:33:57;9.10;99.90
12025;DHT22;6073;53.230;10.444;2024-02-23T12:36:23;9.20;99.90
12025;DHT22;6073;53.230;10.444;2024-02-23T12:38:49;9.20;99.90
12025;DHT22;6073;53.230;10.444;2024-02-23T12:41:14;9.10;99.90
12025;DHT22;6073;53.230;10.444;2024-02-23T12:43:40;9.10;99.90
12025;DHT22;6073;53.230;10.444;2024-02-23T12:46:05;9.20;99.90
12025;DHT22;6073;53.230;10.444;2024-02-23T12:48:33;9.20;99.90
12025;DHT22;6073;53.230;10.444;2024-02-23T12:50:59;9.20;99.90
12025;DHT22;6073;53.230;10.444;2024-02-23T12:53:41;9.30;99.90
12025;DHT22;6073;53.230;10.444;2024-02-23T12:56:09;9.40;99.90
12025;DHT22;6073;53.230;10.444;2024-02-23T12:58:42;9.40;99.90
12025;DHT22;6073;53.230;10.444;2024-02-23T13:01:08;9.50;99.90
12025;DHT22;6073;53.230;10.444;2024-02-23T13:03:35;9.40;99.90
12025;DHT22;6073;53.230;10.444;2024-02-23T13:06:02;9.30;99.90
12025;DHT22;6073;53.230;10.444;2024-02-23T13:08:28;9.20;99.90
12025;DHT22;6073;53.230;10.444;2024-02-23T13:10:55;9.20;99.90
12025;DHT22;6073;53.230;10.444;2024-02-23T13:13:21;9.20;99.90
12025;DHT22;6073;53.230;10.444;2024-02-23T13:15:47;9.10;99.90
12025;DHT22;6073;53.230;10.444;2024-02-23T13:18:14;9.10;99.90
12025;DHT22;6073;53.230;10.444;2024-02-23T13:20:40;9.00;99.90
12025;DHT22;6073;53.230;10.444;2024-02-23T13:23:10;9.10;99.90
12025;DHT22;6073;53.230;10.444;2024-02-23T13:25:37;9.10;99.90
12025;DHT22;6073;53.230;10.444;2024-02-23T13:28:03;9.00;99.90
12025;DHT22;6073;53.230;10.444;2024-02-23T13:30:30;9.00;99.90
12025;DHT22;6073;53.230;10.444;2024-02-23T13:32:56;9.00;99.90
12025;DHT22;6073;53.230;10.444;2024-02-23T13:35:21;9.00;99.90
12025;DHT22;6073;53.230;10.444;2024-02-23T13:37:47;9.00;99.90
12025;DHT22;6073;53.230;10.444;2024-02-23T13:40:13;9.10;99.90
12025;DHT22;6073;53.230;10.444;2024-02-23T13:42:39;9.10;99.90
12025;DHT22;6073;53.230;10.444;2024-02-23T13:45:06;9.10;99.90
12025;DHT22;6073;53.230;10.444;2024-02-23T13:47:32;9.00;99.90
12025;DHT22;6073;53.230;10.444;2024-02-23T13:49:58;9.00;99.90
12025;DHT22;6073;53.230;10.444;2024-02-23T13:52:23;9.00;99.90
12025;DHT22;6073;53.230;10.444;2024-02-23T13:54:49;9.00;99.90
12025;DHT22;6073;53.230;10.444;2024-02-23T13:57:14;9.00;99.90
12025;DHT22;6073;53.230;10.444;2024-02-23T13:59:40;9.00;99.90
12025;DHT22;6073;53.230;10.444;2024-02-23T14:02:06;9.00;99.90
12025;DHT22;6073;53.230;10.444;2024-02-23T14:04:31;9.00;99.90
12025;DHT22;6073;53.230;10.444;2024-02-23T14:06:57;8.90;99.90
12025;DHT22;6073;53.230;10.444;2024-02-23T14:09:22;8.90;99.90
12025;DHT22;6073;53.230;10.444;2024-02-23T14:11:48;8.90;99.90
12025;DHT22;6073;53.230;10.444;2024-02-23T14:14:14;8.90;99.90
12025;DHT22;6073;53.230;10.444;2024-02-23T14:16:40;9.00;99.90
12025;DHT22;6073;53.230;10.444;2024-02-23T14:19:05;9.00;99.90
12025;DHT22;6073;53.230;10.444;2024-02-23T14:21:31;9.00;99.90
12025;DHT22;6073;53.230;10.444;2024-02-23T14:23:56;9.00;99.90
12025;DHT22;6073;53.230;10.444;2024-02-23T14:26:22;9.00;99.90
12025;DHT22;6073;53.230;10.444;2024-02-23T14:28:48;9.00;99.90
12025;DHT22;6073;53.230;10.444;2024-02-23T14:31:14;9.00;99.90
12025;DHT22;6073;53.230;10.444;2024-02-23T14:33:40;8.90;99.90
12025;DHT22;6073;53.230;10.444;2024-02-23T14:36:06;8.90;99.90
12025;DHT22;6073;53.230;10.444;2024-02-23T14:38:32;8.90;99.90
12025;DHT22;6073;53.230;10.444;2024-02-23T14:40:57;9.00;99.90
12025;DHT22;6073;53.230;10.444;2024-02-23T14:43:24;9.00;99.90
12025;DHT22;6073;53.230;10.444;2024-02-23T14:45:49;8.90;99.90
12025;DHT22;6073;53.230;10.444;2024-02-23T14:48:17;9.00;99.90
12025;DHT22;6073;53.230;10.444;2024-02-23T14:50:43;8.90;99.90
12025;DHT22;6073;53.230;10.444;2024-02-23T14:53:09;9.00;99.90
12025;DHT22;6073;53.230;10.444;2024-02-23T14:55:35;9.00;99.90
12025;DHT22;6073;53.230;10.444;2024-02-23T14:58:01;9.00;99.90
12025;DHT22;6073;53.230;10.444;2024-02-23T15:00:26;9.00;99.90
12025;DHT22;6073;53.230;10.444;2024-02-23T15:02:55;8.90;99.90
12025;DHT22;6073;53.230;10.444;2024-02-23T15:05:22;8.90;99.90
12025;DHT22;6073;53.230;10.444;2024-02-23T15:07:48;8.90;99.90
12025;DHT22;6073;53.230;10.444;2024-02-23T15:10:13;8.90;99.90
12025;DHT22;6073;53.230;10.444;2024-02-23T15:12:39;9.00;99.90
12025;DHT22;6073;53.230;10.444;2024-02-23T15:15:05;8.90;99.90
12025;DHT22;6073;53.230;10.444;2024-02-23T15:17:32;9.00;99.90
12025;DHT22;6073;53.230;10.444;2024-02-23T15:19:57;9.00;99.90
12025;DHT22;6073;53.230;10.444;2024-02-23T15:22:23;9.10;99.90
12025;DHT22;6073;53.230;10.444;2024-02-23T15:24:51;9.00;99.90
12025;DHT22;6073;53.230;10.444;2024-02-23T15:27:17;9.10;99.90
12025;DHT22;6073;53.230;10.444;2024-02-23T15:29:43;9.10;99.90
12025;DHT22;6073;53.230;10.444;2024-02-23T15:32:09;9.00;99.90
12025;DHT22;6073;53.230;10.444;2024-02-23T15:34:36;8.90;99.90
12025;DHT22;6073;53.230;10.444;2024-02-23T15:37:01;8.80;99.90